Time;durP1;ratioP1;P1;durP2;ratioP2;P2;SDS_P1;SDS_P2;PMS_P1;PMS_P2;Temp;Humidity;BMP_temperature;BMP_pressure;BME280_temperature;BME280_humidity;BME280_pressure;Samples;Min_cycle;Max_cycle;Signal;HPM_P1;HPM_P2
2023/01/01 00:00:51;;;;;;;5.30;4.00;;;12.50;99.90;;;;;;5091472;28;20673;-71
2023/01/01 00:03:21;;;;;;;6.80;4.17;;;12.50;99.90;;;;;;5090984;28;20291;-70
2023/01/01 00:05:50;;;;;;;5.13;4.17;;;12.50;99.90;;;;;;5091493;28;20196;-72
2023/01/01 00:08:19;;;;;;;5.70;3.93;;;12.50;99.90;;;;;;5091500;28;20200;-74
2023/01/01 00:10:48;;;;;;;4.53;4.03;;;12.50;99.90;;;;;;5091391;28;20237;-71
2023/01/01 00:13:18;;;;;;;6.53;5.20;;;12.40;99.90;;;;;;5091580;28;20235;-71
2023/01/01 00:15:47;;;;;;;9.67;6.90;;;12.40;99.90;;;;;;5091635;28;20199;-69
2023/01/01 00:18:16;;;;;;;8.93;6.93;;;12.40;99.90;;;;;;5090923;28;20655;-71
2023/01/01 00:20:45;;;;;;;10.27;8.40;;;12.40;99.90;;;;;;5090980;28;20223;-71
2023/01/01 00:23:14;;;;;;;11.37;8.03;;;12.50;99.90;;;;;;5091633;28;20207;-71
2023/01/01 00:25:43;;;;;;;13.17;9.23;;;12.40;99.90;;;;;;5091157;28;20689;-73
2023/01/01 00:28:12;;;;;;;14.50;8.73;;;12.50;99.90;;;;;;5091486;28;20203;-72
2023/01/01 00:30:43;;;;;;;15.83;8.53;;;12.50;99.90;;;;;;5089776;28;20220;-71
2023/01/01 00:33:12;;;;;;;16.07;11.03;;;12.50;99.90;;;;;;5090757;28;20199;-71
2023/01/01 00:35:41;;;;;;;37.77;26.50;;;12.50;99.90;;;;;;5091465;28;20221;-72
2023/01/01 00:38:10;;;;;;;30.70;20.03;;;12.50;99.90;;;;;;5090025;28;20207;-71
2023/01/01 00:40:39;;;;;;;17.83;13.00;;;12.50;99.90;;;;;;5090268;28;20192;-71
2023/01/01 00:43:08;;;;;;;21.13;13.07;;;12.50;99.90;;;;;;5082894;28;20193;-70
2023/01/01 00:45:37;;;;;;;23.43;14.70;;;12.50;99.90;;;;;;5070935;28;20216;-70
2023/01/01 00:48:07;;;;;;;22.23;13.40;;;12.50;99.90;;;;;;5073820;28;20558;-72
2023/01/01 00:50:36;;;;;;;23.37;14.83;;;12.50;99.90;;;;;;5077717;28;20224;-70
2023/01/01 00:53:05;;;;;;;21.77;13.63;;;12.60;99.90;;;;;;5094023;28;20278;-70
2023/01/01 00:55:34;;;;;;;19.53;11.87;;;12.50;99.90;;;;;;5079327;28;20514;-69
2023/01/01 00:58:03;;;;;;;17.87;12.17;;;12.60;99.90;;;;;;5074648;28;20208;-69
2023/01/01 01:00:32;;;;;;;18.03;11.53;;;12.60;99.90;;;;;;5074846;28;20304;-70
2023/01/01 01:03:01;;;;;;;20.13;12.07;;;12.70;99.90;;;;;;5087377;28;20692;-69
2023/01/01 01:05:32;;;;;;;18.90;11.33;;;12.70;99.90;;;;;;5092683;28;20270;-68
2023/01/01 01:08:01;;;;;;;17.60;11.17;;;12.70;99.90;;;;;;5091401;28;20204;-69
2023/01/01 01:10:29;;;;;;;13.20;8.83;;;12.80;99.90;;;;;;5074068;28;20224;-67
2023/01/01 01:12:58;;;;;;;12.47;9.20;;;12.80;99.90;;;;;;5085119;28;20196;-70
2023/01/01 01:15:27;;;;;;;12.97;8.77;;;12.90;99.90;;;;;;5094719;28;20207;-69
2023/01/01 01:17:56;;;;;;;10.27;7.93;;;12.90;99.90;;;;;;5094880;28;20196;-70
2023/01/01 01:20:25;;;;;;;12.10;7.23;;;13.00;99.90;;;;;;5081326;28;20287;-70
2023/01/01 01:22:56;;;;;;;11.57;7.40;;;13.00;99.90;;;;;;5074330;28;20193;-70
2023/01/01 01:25:25;;;;;;;9.80;7.30;;;13.00;99.90;;;;;;5079698;28;20236;-69
2023/01/01 01:27:53;;;;;;;10.43;7.17;;;13.10;99.90;;;;;;5095509;28;20237;-71
2023/01/01 01:30:22;;;;;;;10.17;6.30;;;13.10;99.90;;;;;;5094769;28;20782;-71
2023/01/01 01:32:51;;;;;;;9.27;6.00;;;13.20;99.90;;;;;;5094815;28;20232;-71
2023/01/01 01:35:22;;;;;;;7.30;6.03;;;13.20;99.90;;;;;;5095056;28;20205;-71
2023/01/01 01:37:51;;;;;;;6.60;5.70;;;13.30;99.90;;;;;;5094742;28;20196;-72
2023/01/01 01:40:22;;;;;;;6.77;5.80;;;13.30;99.90;;;;;;5094914;28;20251;-72
2023/01/01 01:42:52;;;;;;;7.93;5.90;;;13.40;99.90;;;;;;5094712;28;20274;-72
2023/01/01 01:45:21;;;;;;;6.87;5.87;;;13.40;99.90;;;;;;5094199;28;20603;-72
2023/01/01 01:47:52;;;;;;;8.17;6.90;;;13.40;99.90;;;;;;5094706;28;20193;-72
2023/01/01 01:50:26;;;;;;;9.93;8.00;;;13.50;99.90;;;;;;5093281;28;20256;-72
2023/01/01 01:53:07;;;;;;;7.87;5.73;;;13.50;99.90;;;;;;5094278;28;20231;-71
2023/01/01 01:55:39;;;;;;;7.60;5.43;;;13.60;99.90;;;;;;5094337;28;20185;-72
2023/01/01 01:58:11;;;;;;;7.43;4.80;;;13.60;99.90;;;;;;5094134;28;20203;-72
2023/01/01 02:00:41;;;;;;;6.10;4.90;;;13.70;99.90;;;;;;5090270;28;20343;-71
2023/01/01 02:03:13;;;;;;;7.67;5.13;;;13.70;99.90;;;;;;5078298;28;20192;-72
2023/01/01 02:05:43;;;;;;;4.90;4.40;;;13.80;99.90;;;;;;5094303;28;20235;-73
2023/01/01 02:08:14;;;;;;;7.23;4.40;;;13.80;99.90;;;;;;5074014;28;20213;-72
2023/01/01 02:10:45;;;;;;;5.43;4.40;;;13.90;99.90;;;;;;5073955;28;20719;-73
2023/01/01 02:13:14;;;;;;;6.63;4.50;;;13.90;99.90;;;;;;5077000;28;20213;-72
2023/01/01 02:15:52;;;;;;;6.13;4.07;;;13.90;99.90;;;;;;5094094;28;20293;-72
2023/01/01 02:18:26;;;;;;;6.83;4.83;;;13.90;99.90;;;;;;5094224;28;20188;-72
2023/01/01 02:21:00;;;;;;;4.77;4.17;;;13.90;99.90;;;;;;5094083;28;20193;-72
2023/01/01 02:23:58;;;;;;;5.20;4.10;;;14.00;99.90;;;;;;5093913;28;20199;-72
2023/01/01 02:26:50;;;;;;;7.13;4.60;;;14.00;99.90;;;;;;5083281;28;20286;-73
2023/01/01 02:29:38;;;;;;;5.10;4.07;;;14.00;99.90;;;;;;5073919;28;20259;-72
2023/01/01 02:32:10;;;;;;;5.10;3.90;;;14.00;99.90;;;;;;5073672;28;20764;-72
2023/01/01 02:34:42;;;;;;;5.67;4.23;;;14.00;99.90;;;;;;5073479;28;20254;-72
2023/01/01 02:37:14;;;;;;;5.50;3.80;;;14.10;99.90;;;;;;5073486;28;20262;-72
2023/01/01 02:39:47;;;;;;;7.33;4.80;;;14.10;99.90;;;;;;5073615;28;20252;-71
2023/01/01 02:42:17;;;;;;;8.53;4.57;;;14.20;99.90;;;;;;5073585;28;20212;-71
2023/01/01 02:44:50;;;;;;;8.23;4.73;;;14.20;99.90;;;;;;5073365;28;20243;-71
2023/01/01 02:47:20;;;;;;;9.10;4.37;;;14.20;99.90;;;;;;5079404;28;20208;-71
2023/01/01 02:49:58;;;;;;;5.70;4.47;;;14.20;99.90;;;;;;5073360;28;20220;-71
2023/01/01 02:52:49;;;;;;;7.30;4.43;;;14.10;99.90;;;;;;5073004;28;20196;-71
2023/01/01 02:55:29;;;;;;;5.67;4.10;;;14.10;99.90;;;;;;5078325;28;20193;-71
2023/01/01 03:00:54;;;;;;;8.13;5.07;;;14.20;99.90;;;;;;5091330;28;20207;-72
2023/01/01 03:03:30;;;;;;;8.60;5.13;;;14.20;99.90;;;;;;5090651;28;20241;-72
2023/01/01 03:06:25;;;;;;;5.23;4.53;;;14.20;99.90;;;;;;5092616;28;20201;-72
2023/01/01 03:09:06;;;;;;;7.13;4.77;;;14.20;99.90;;;;;;5092272;28;20207;-71
2023/01/01 03:11:43;;;;;;;8.27;4.07;;;14.20;99.90;;;;;;5088915;28;20230;-71
2023/01/01 03:14:19;;;;;;;5.67;4.43;;;14.20;99.90;;;;;;5092445;28;20200;-72
2023/01/01 03:16:56;;;;;;;5.47;4.13;;;14.30;99.90;;;;;;5092727;28;20226;-71
2023/01/01 03:19:27;;;;;;;7.40;4.43;;;14.30;99.90;;;;;;5093377;28;20205;-71
2023/01/01 03:22:01;;;;;;;6.60;4.27;;;14.40;99.90;;;;;;5092999;28;20198;-71
2023/01/01 03:24:34;;;;;;;10.03;4.67;;;14.40;99.90;;;;;;5091818;28;20204;-71
2023/01/01 03:27:06;;;;;;;8.23;5.00;;;14.50;99.90;;;;;;5092654;28;20196;-71
2023/01/01 03:29:39;;;;;;;7.70;4.67;;;14.50;99.90;;;;;;5092109;28;20249;-71
2023/01/01 03:32:13;;;;;;;6.10;4.27;;;14.50;99.90;;;;;;5092650;28;20236;-72
2023/01/01 03:34:51;;;;;;;10.17;4.57;;;14.50;99.90;;;;;;5092239;28;20282;-71
2023/01/01 03:37:26;;;;;;;7.77;4.53;;;14.50;99.90;;;;;;5091919;28;20196;-71
2023/01/01 03:39:59;;;;;;;7.73;4.30;;;14.50;99.90;;;;;;5092214;28;20203;-72
2023/01/01 03:42:35;;;;;;;7.53;4.63;;;14.50;99.90;;;;;;5091656;28;20297;-72
2023/01/01 03:45:09;;;;;;;6.10;4.40;;;14.50;99.90;;;;;;5092602;28;20222;-72
2023/01/01 03:47:40;;;;;;;8.00;5.23;;;14.50;99.90;;;;;;5092215;28;20203;-72
2023/01/01 03:50:10;;;;;;;9.47;4.93;;;14.60;99.90;;;;;;5092340;28;20192;-70
2023/01/01 03:52:47;;;;;;;6.53;4.57;;;14.50;99.90;;;;;;5092128;28;20634;-71
2023/01/01 03:55:21;;;;;;;9.30;4.60;;;14.60;99.90;;;;;;5092011;28;20674;-70
2023/01/01 03:57:57;;;;;;;8.60;4.13;;;14.60;99.90;;;;;;5092323;28;20207;-69
2023/01/01 04:00:31;;;;;;;10.13;5.67;;;14.60;99.90;;;;;;5092108;28;20231;-71
2023/01/01 04:03:06;;;;;;;7.60;4.80;;;14.60;99.90;;;;;;5092066;28;20210;-70
2023/01/01 04:05:38;;;;;;;7.23;4.10;;;14.60;99.90;;;;;;5092046;28;20196;-70
2023/01/01 04:08:08;;;;;;;12.10;4.13;;;14.70;99.90;;;;;;5091796;28;20692;-70
2023/01/01 04:10:40;;;;;;;6.70;4.10;;;14.70;99.90;;;;;;5092054;28;20608;-70
2023/01/01 04:13:09;;;;;;;6.20;3.90;;;14.70;99.90;;;;;;5091998;28;20208;-71
2023/01/01 04:15:37;;;;;;;12.47;4.73;;;14.70;99.90;;;;;;5091981;28;20267;-72
2023/01/01 04:18:08;;;;;;;6.83;4.03;;;14.80;99.90;;;;;;5091891;28;20204;-73
2023/01/01 04:20:37;;;;;;;5.40;4.03;;;14.80;99.90;;;;;;5091601;28;20199;-73
2023/01/01 04:23:05;;;;;;;5.20;4.00;;;14.80;99.90;;;;;;5091730;28;20204;-72
2023/01/01 04:25:34;;;;;;;9.53;4.63;;;14.80;99.90;;;;;;5091534;28;20604;-73
2023/01/01 04:28:03;;;;;;;6.03;4.20;;;14.80;99.90;;;;;;5091739;28;20197;-72
2023/01/01 04:30:32;;;;;;;10.73;3.80;;;14.80;99.90;;;;;;5091816;28;20199;-72
2023/01/01 04:33:00;;;;;;;8.87;4.00;;;14.80;99.90;;;;;;5091757;28;20380;-72
2023/01/01 04:35:30;;;;;;;7.73;3.80;;;14.90;99.90;;;;;;5091881;28;20202;-72
2023/01/01 04:38:02;;;;;;;7.37;3.73;;;14.90;99.90;;;;;;5091675;28;20247;-71
2023/01/01 04:40:31;;;;;;;7.63;3.83;;;14.90;99.90;;;;;;5091713;28;20725;-70
2023/01/01 04:43:00;;;;;;;7.47;4.00;;;14.80;99.90;;;;;;5091533;28;20209;-71
2023/01/01 04:45:29;;;;;;;6.37;4.73;;;14.90;99.90;;;;;;5091633;28;20195;-70
2023/01/01 04:48:03;;;;;;;9.17;4.00;;;14.80;99.90;;;;;;5091472;28;20196;-72
2023/01/01 04:50:33;;;;;;;7.37;4.87;;;14.80;99.90;;;;;;5091653;28;20197;-72
2023/01/01 04:53:02;;;;;;;10.23;4.10;;;14.80;99.90;;;;;;5091307;28;20324;-72
2023/01/01 04:55:31;;;;;;;6.17;4.27;;;14.80;99.90;;;;;;5091324;28;20220;-72
2023/01/01 04:58:00;;;;;;;7.63;4.03;;;14.80;99.90;;;;;;5091499;28;20195;-73
2023/01/01 05:00:29;;;;;;;7.47;4.03;;;14.80;99.90;;;;;;5091599;28;20244;-73
2023/01/01 05:02:57;;;;;;;6.67;4.20;;;14.80;99.90;;;;;;5091401;28;20246;-72
2023/01/01 05:05:26;;;;;;;8.47;4.03;;;14.70;99.90;;;;;;5091437;28;20621;-73
2023/01/01 05:07:57;;;;;;;8.33;3.87;;;14.70;99.90;;;;;;5091284;28;20201;-72
2023/01/01 05:10:26;;;;;;;12.73;3.90;;;14.80;99.90;;;;;;5091454;28;20246;-73
2023/01/01 05:12:54;;;;;;;6.50;3.83;;;14.80;99.90;;;;;;5091189;28;20224;-73
2023/01/01 05:15:23;;;;;;;5.87;4.37;;;14.80;99.90;;;;;;5091403;28;20201;-72
2023/01/01 05:17:54;;;;;;;7.23;3.87;;;14.80;99.90;;;;;;5091398;28;20222;-73
2023/01/01 05:20:22;;;;;;;9.30;3.93;;;14.80;99.90;;;;;;5091356;28;20553;-73
2023/01/01 05:22:51;;;;;;;5.33;3.87;;;14.80;99.70;;;;;;5091130;28;20733;-73
2023/01/01 05:25:22;;;;;;;14.17;4.23;;;14.80;99.90;;;;;;5091045;28;20229;-72
2023/01/01 05:27:51;;;;;;;11.80;4.80;;;14.80;98.90;;;;;;5091287;28;20201;-72
2023/01/01 05:30:22;;;;;;;6.87;4.00;;;14.90;99.00;;;;;;5091405;28;20628;-72
2023/01/01 05:32:51;;;;;;;6.23;4.43;;;14.90;97.80;;;;;;5112243;28;20217;-74
2023/01/01 05:35:20;;;;;;;11.17;4.10;;;15.00;97.60;;;;;;5115225;28;20620;-73
2023/01/01 05:37:54;;;;;;;9.50;3.97;;;15.10;96.60;;;;;;5114993;28;20230;-74
2023/01/01 05:40:24;;;;;;;11.37;4.47;;;15.10;96.60;;;;;;5115118;28;20678;-74
2023/01/01 05:42:53;;;;;;;6.50;4.07;;;15.10;96.50;;;;;;5115067;28;20222;-72
2023/01/01 05:45:22;;;;;;;13.23;4.60;;;15.10;97.00;;;;;;5115049;28;20192;-73
2023/01/01 05:47:50;;;;;;;9.27;4.07;;;15.10;96.00;;;;;;5114908;28;20194;-72
2023/01/01 05:50:19;;;;;;;7.70;3.93;;;15.10;96.10;;;;;;5114982;28;20257;-72
2023/01/01 05:52:48;;;;;;;7.33;4.10;;;15.10;95.20;;;;;;5114911;28;20228;-72
2023/01/01 05:55:17;;;;;;;7.27;3.93;;;15.00;96.10;;;;;;5114527;28;20204;-74
2023/01/01 05:57:47;;;;;;;8.43;5.20;;;15.10;95.60;;;;;;5114784;28;20205;-73
2023/01/01 06:00:17;;;;;;;8.80;4.43;;;15.20;94.40;;;;;;5114804;28;20204;-72
2023/01/01 06:02:45;;;;;;;7.10;4.60;;;15.20;94.00;;;;;;5114563;28;20226;-72
2023/01/01 06:05:14;;;;;;;10.57;5.60;;;15.30;93.60;;;;;;5114694;28;20199;-72
2023/01/01 06:07:43;;;;;;;9.20;4.67;;;15.30;94.00;;;;;;5114628;28;20249;-71
2023/01/01 06:10:16;;;;;;;10.07;5.43;;;15.30;93.10;;;;;;5114536;27;20212;-72
2023/01/01 06:12:45;;;;;;;9.00;4.33;;;15.40;92.80;;;;;;5135060;27;20250;-72
2023/01/01 06:15:15;;;;;;;10.13;5.40;;;15.40;92.70;;;;;;5134839;27;20402;-71
2023/01/01 06:17:44;;;;;;;9.47;4.50;;;15.40;92.70;;;;;;5134950;27;20198;-73
2023/01/01 06:20:13;;;;;;;14.73;6.00;;;15.40;92.50;;;;;;5134788;27;20199;-72
2023/01/01 06:22:42;;;;;;;10.93;5.13;;;15.40;92.80;;;;;;5134970;27;20199;-71
2023/01/01 06:25:11;;;;;;;13.47;5.40;;;15.40;92.90;;;;;;5129946;27;20692;-71
2023/01/01 06:27:40;;;;;;;8.57;5.77;;;15.40;92.90;;;;;;5105592;28;20246;-71
2023/01/01 06:30:10;;;;;;;12.90;5.43;;;15.40;92.60;;;;;;5095473;28;20194;-71
2023/01/01 06:32:40;;;;;;;7.83;5.93;;;15.40;92.50;;;;;;5093657;28;20229;-72
2023/01/01 06:35:09;;;;;;;10.23;5.10;;;15.50;92.30;;;;;;5111376;28;20216;-73
2023/01/01 06:37:38;;;;;;;12.87;6.53;;;15.50;92.00;;;;;;5113988;28;20186;-74
2023/01/01 06:40:08;;;;;;;10.47;6.13;;;15.50;92.20;;;;;;5113868;28;20201;-72
2023/01/01 06:42:37;;;;;;;10.37;5.90;;;15.50;91.90;;;;;;5110394;28;20250;-73
2023/01/01 06:45:07;;;;;;;10.13;5.87;;;15.50;91.70;;;;;;5099733;28;20222;-73
2023/01/01 06:47:36;;;;;;;15.27;6.43;;;15.50;91.60;;;;;;5109557;28;20190;-73
2023/01/01 06:50:09;;;;;;;14.37;6.57;;;15.50;91.40;;;;;;5093410;28;20284;-73
2023/01/01 06:52:38;;;;;;;10.07;5.97;;;15.50;91.30;;;;;;5093423;28;20229;-72
2023/01/01 06:55:07;;;;;;;10.47;5.93;;;15.60;91.50;;;;;;5092904;28;20199;-73
2023/01/01 06:57:36;;;;;;;10.67;5.93;;;15.50;91.20;;;;;;5093277;28;20197;-73
2023/01/01 07:00:06;;;;;;;8.30;5.90;;;15.60;91.00;;;;;;5093305;28;20618;-73
2023/01/01 07:02:35;;;;;;;14.83;8.07;;;15.60;91.40;;;;;;5093195;28;20206;-73
2023/01/01 07:05:04;;;;;;;9.40;6.23;;;15.60;92.50;;;;;;5093084;28;20193;-74
2023/01/01 07:07:35;;;;;;;11.50;6.90;;;15.50;92.40;;;;;;5092922;28;20743;-72
2023/01/01 07:10:04;;;;;;;8.13;6.67;;;15.50;92.50;;;;;;5092394;28;20199;-72
2023/01/01 07:12:33;;;;;;;13.37;7.77;;;15.50;92.60;;;;;;5112243;27;20285;-72
2023/01/01 07:15:01;;;;;;;11.67;7.87;;;15.40;93.30;;;;;;5121718;27;20221;-71
2023/01/01 07:17:31;;;;;;;10.00;6.87;;;15.40;93.60;;;;;;5106224;28;20206;-72
2023/01/01 07:20:00;;;;;;;13.93;7.57;;;15.30;93.90;;;;;;5103356;28;20199;-71
2023/01/01 07:22:29;;;;;;;10.57;6.97;;;15.40;93.40;;;;;;5091756;28;20291;-72
2023/01/01 07:24:59;;;;;;;12.50;6.93;;;15.40;93.20;;;;;;5091493;28;20323;-71
2023/01/01 07:27:28;;;;;;;10.37;6.60;;;15.30;93.50;;;;;;5103703;28;20203;-70
2023/01/01 07:29:57;;;;;;;10.70;6.37;;;15.30;94.20;;;;;;5113581;27;20197;-71
2023/01/01 07:32:26;;;;;;;13.87;7.03;;;15.40;92.70;;;;;;5133409;27;20254;-70
2023/01/01 07:34:55;;;;;;;10.60;6.13;;;15.60;92.00;;;;;;5133328;27;20631;-70
2023/01/01 07:37:25;;;;;;;14.33;6.40;;;15.60;91.80;;;;;;5133453;27;20527;-70
2023/01/01 07:39:54;;;;;;;8.03;5.60;;;15.60;91.00;;;;;;5133233;27;20533;-72
2023/01/01 07:42:24;;;;;;;10.90;6.40;;;15.60;90.50;;;;;;5133452;27;20240;-70
2023/01/01 07:44:53;;;;;;;9.57;5.63;;;15.50;90.90;;;;;;5133282;27;20252;-71
2023/01/01 07:47:23;;;;;;;14.90;7.77;;;15.50;90.80;;;;;;5133360;27;20222;-72
2023/01/01 07:49:52;;;;;;;9.97;5.63;;;15.50;90.50;;;;;;5133305;27;20248;-72
2023/01/01 07:52:21;;;;;;;9.53;5.43;;;15.60;90.30;;;;;;5114832;27;20672;-73
2023/01/01 07:54:50;;;;;;;9.17;5.67;;;15.60;90.30;;;;;;5132906;27;20308;-70
2023/01/01 07:57:19;;;;;;;9.87;6.10;;;15.60;89.30;;;;;;5132903;27;20194;-70
2023/01/01 07:59:49;;;;;;;13.03;5.70;;;15.60;88.70;;;;;;5133027;27;20214;-70
2023/01/01 08:02:18;;;;;;;14.13;7.20;;;15.70;88.20;;;;;;5133022;27;20603;-71
2023/01/01 08:04:47;;;;;;;9.47;5.93;;;15.70;88.70;;;;;;5133113;27;20571;-70
2023/01/01 08:07:15;;;;;;;7.53;5.40;;;15.70;87.30;;;;;;5132865;27;20189;-70
2023/01/01 08:09:44;;;;;;;12.47;7.03;;;15.70;87.20;;;;;;5132734;27;20206;-71
2023/01/01 08:12:13;;;;;;;13.07;5.70;;;15.70;87.00;;;;;;5132857;27;20187;-71
2023/01/01 08:14:42;;;;;;;9.47;5.17;;;15.80;86.10;;;;;;5132634;27;20227;-71
2023/01/01 08:17:12;;;;;;;10.33;4.83;;;15.80;85.80;;;;;;5132574;27;20263;-72
2023/01/01 08:19:41;;;;;;;9.90;5.87;;;15.80;84.70;;;;;;5132613;27;20200;-71
2023/01/01 08:22:11;;;;;;;8.77;4.43;;;15.80;84.80;;;;;;5132726;27;20188;-72
2023/01/01 08:24:39;;;;;;;11.43;6.67;;;15.90;84.60;;;;;;5132229;27;20211;-72
2023/01/01 08:27:10;;;;;;;8.70;4.70;;;15.90;83.90;;;;;;5132607;27;20197;-72
2023/01/01 08:29:39;;;;;;;8.57;4.43;;;15.90;83.90;;;;;;5132300;28;20213;-72
2023/01/01 08:32:08;;;;;;;9.40;4.80;;;15.90;83.40;;;;;;5132690;28;20189;-73
2023/01/01 08:34:39;;;;;;;7.63;5.03;;;15.90;83.50;;;;;;5132286;28;20247;-71
2023/01/01 08:37:13;;;;;;;10.37;5.17;;;16.00;82.50;;;;;;5132608;28;20279;-71
2023/01/01 08:39:42;;;;;;;5.63;4.73;;;16.00;82.90;;;;;;5132183;28;20262;-71
2023/01/01 08:42:11;;;;;;;9.27;4.80;;;16.00;83.50;;;;;;5132347;28;20247;-71
2023/01/01 08:44:40;;;;;;;14.87;5.67;;;16.00;82.30;;;;;;5132630;28;20198;-70
2023/01/01 08:47:18;;;;;;;7.97;4.70;;;16.00;82.10;;;;;;5132378;28;20679;-71
2023/01/01 08:49:48;;;;;;;8.70;5.00;;;16.10;81.70;;;;;;5132436;28;20684;-70
2023/01/01 08:52:18;;;;;;;7.60;4.87;;;16.10;82.00;;;;;;5132314;28;20667;-70
2023/01/01 08:54:46;;;;;;;7.87;5.47;;;16.10;81.00;;;;;;5132071;28;20688;-70
2023/01/01 08:57:15;;;;;;;5.60;4.70;;;16.10;81.40;;;;;;5132249;28;20264;-70
2023/01/01 08:59:44;;;;;;;15.20;10.47;;;16.10;81.10;;;;;;5132412;28;20675;-70
2023/01/01 09:02:13;;;;;;;7.97;5.73;;;16.10;81.40;;;;;;5132162;28;20263;-70
2023/01/01 09:04:42;;;;;;;8.07;5.27;;;16.10;81.80;;;;;;5132161;28;20227;-70
2023/01/01 09:07:12;;;;;;;7.87;4.87;;;16.10;81.40;;;;;;5132112;27;20208;-70
2023/01/01 09:09:41;;;;;;;7.93;4.93;;;16.10;81.60;;;;;;5135983;27;20285;-70
2023/01/01 09:12:15;;;;;;;9.00;5.50;;;16.10;82.10;;;;;;5136020;27;20282;-70
2023/01/01 09:14:46;;;;;;;10.43;5.70;;;16.20;82.20;;;;;;5135961;27;20231;-71
2023/01/01 09:17:15;;;;;;;8.07;5.83;;;16.10;81.50;;;;;;5136076;27;20253;-71
2023/01/01 09:19:44;;;;;;;8.33;5.23;;;16.20;81.10;;;;;;5136056;27;20252;-71
2023/01/01 09:22:15;;;;;;;8.43;5.07;;;16.10;81.50;;;;;;5135834;27;20272;-71
2023/01/01 09:24:43;;;;;;;10.37;5.53;;;16.20;80.70;;;;;;5135490;27;20202;-71
2023/01/01 09:27:12;;;;;;;11.63;5.27;;;16.20;80.20;;;;;;5135572;27;20664;-71
2023/01/01 09:29:41;;;;;;;8.10;4.90;;;16.30;80.50;;;;;;5135849;27;20559;-70
2023/01/01 09:32:10;;;;;;;10.63;5.77;;;16.30;80.10;;;;;;5135721;27;20538;-70
2023/01/01 09:34:39;;;;;;;8.57;4.87;;;16.30;80.50;;;;;;5135602;27;20223;-70
2023/01/01 09:37:08;;;;;;;8.73;5.40;;;16.30;79.70;;;;;;5135694;27;20666;-70
2023/01/01 09:39:38;;;;;;;8.23;5.30;;;16.30;79.40;;;;;;5135553;27;20213;-70
2023/01/01 09:42:31;;;;;;;9.60;5.13;;;16.30;79.50;;;;;;5135436;27;20200;-69
2023/01/01 09:45:21;;;;;;;6.83;5.53;;;16.30;78.50;;;;;;5135568;27;20203;-70
2023/01/01 09:47:53;;;;;;;9.33;4.90;;;16.30;78.60;;;;;;5135530;27;20193;-69
2023/01/01 09:50:27;;;;;;;7.17;4.87;;;16.30;77.40;;;;;;5135674;27;20201;-70
2023/01/01 09:52:59;;;;;;;9.37;6.50;;;16.40;77.50;;;;;;5135805;27;20201;-70
2023/01/01 09:55:34;;;;;;;10.07;5.73;;;16.40;76.70;;;;;;5135334;27;20242;-70
2023/01/01 09:58:03;;;;;;;10.87;5.70;;;16.30;76.70;;;;;;5135264;27;20690;-69
2023/01/01 10:00:34;;;;;;;11.63;6.23;;;16.40;76.50;;;;;;5135158;27;20194;-69
2023/01/01 10:03:29;;;;;;;9.87;5.43;;;16.40;76.00;;;;;;5135311;27;20198;-70
2023/01/01 10:06:04;;;;;;;8.83;5.27;;;16.40;76.10;;;;;;5135133;27;20209;-71
2023/01/01 10:08:43;;;;;;;8.97;5.87;;;16.40;74.60;;;;;;5134987;27;20298;-71
2023/01/01 10:11:23;;;;;;;13.77;6.60;;;16.40;74.10;;;;;;5116433;27;20197;-71
2023/01/01 10:13:53;;;;;;;10.10;6.07;;;16.40;74.20;;;;;;5135139;27;20292;-71
2023/01/01 10:16:32;;;;;;;16.53;7.77;;;16.40;73.50;;;;;;5134958;27;20260;-71
2023/01/01 10:19:08;;;;;;;10.70;5.90;;;16.40;73.60;;;;;;5134519;27;20220;-70
2023/01/01 10:21:42;;;;;;;7.20;5.40;;;16.30;72.60;;;;;;5134916;27;20194;-70
2023/01/01 10:24:30;;;;;;;12.20;5.67;;;16.30;73.20;;;;;;5134777;27;20196;-71
2023/01/01 10:27:03;;;;;;;12.33;5.67;;;16.30;72.30;;;;;;5134742;27;20556;-71
2023/01/01 10:29:38;;;;;;;8.73;5.27;;;16.30;72.00;;;;;;5133998;27;20537;-71
2023/01/01 10:32:28;;;;;;;9.87;6.47;;;16.30;71.70;;;;;;5134399;27;20193;-71
2023/01/01 10:34:58;;;;;;;11.87;5.77;;;16.30;72.20;;;;;;5134432;27;20209;-71
2023/01/01 10:37:31;;;;;;;11.07;5.43;;;16.30;71.20;;;;;;5134441;27;20201;-71
2023/01/01 10:40:05;;;;;;;8.73;5.03;;;16.30;70.80;;;;;;5134314;27;20207;-71
2023/01/01 10:42:35;;;;;;;11.97;5.47;;;16.40;70.20;;;;;;5134513;27;20665;-72
2023/01/01 10:45:05;;;;;;;10.87;6.20;;;16.40;71.00;;;;;;5134236;27;20198;-71
2023/01/01 10:47:34;;;;;;;13.87;6.13;;;16.40;69.70;;;;;;5134377;27;20198;-70
2023/01/01 10:50:06;;;;;;;12.77;6.20;;;16.40;69.30;;;;;;5134144;27;20287;-71
2023/01/01 10:52:37;;;;;;;12.77;5.80;;;16.50;68.70;;;;;;5134133;27;20215;-71
2023/01/01 10:55:08;;;;;;;9.40;5.47;;;16.60;67.70;;;;;;5134019;27;20557;-70
2023/01/01 10:57:40;;;;;;;10.37;5.00;;;16.60;67.30;;;;;;5134009;27;20207;-70
2023/01/01 11:00:22;;;;;;;8.00;5.40;;;16.70;66.50;;;;;;5133939;27;20190;-71
2023/01/01 11:03:19;;;;;;;8.77;4.83;;;16.80;66.50;;;;;;5126224;27;20207;-71
2023/01/01 11:06:02;;;;;;;12.43;5.63;;;16.80;65.80;;;;;;5133690;27;20662;-71
2023/01/01 11:08:33;;;;;;;10.87;5.07;;;16.80;65.50;;;;;;5133717;27;20202;-72
2023/01/01 11:11:04;;;;;;;11.50;5.60;;;16.70;65.10;;;;;;5154253;27;20213;-72
2023/01/01 11:13:34;;;;;;;11.77;4.90;;;16.70;65.60;;;;;;5154562;27;20618;-72
2023/01/01 11:16:10;;;;;;;9.03;5.20;;;16.70;65.60;;;;;;5154531;27;20219;-72
2023/01/01 11:18:39;;;;;;;10.07;5.00;;;16.70;65.40;;;;;;5154259;27;20213;-72
2023/01/01 11:21:08;;;;;;;12.63;5.57;;;16.60;65.90;;;;;;5154252;27;20204;-71
2023/01/01 11:23:39;;;;;;;8.93;5.13;;;16.60;65.70;;;;;;5154236;27;20202;-72
2023/01/01 11:26:23;;;;;;;9.60;4.87;;;16.60;65.90;;;;;;5153858;27;20230;-72
2023/01/01 11:29:21;;;;;;;7.63;4.77;;;16.50;65.70;;;;;;5154293;27;20208;-72
2023/01/01 11:31:50;;;;;;;10.93;5.40;;;16.50;66.10;;;;;;5134491;27;20215;-70
2023/01/01 11:34:34;;;;;;;10.97;5.60;;;16.50;66.00;;;;;;5154037;27;20635;-71
2023/01/01 11:37:26;;;;;;;9.10;5.27;;;16.50;66.40;;;;;;5154090;27;20207;-71
2023/01/01 11:39:58;;;;;;;10.47;3.97;;;16.40;66.20;;;;;;5154063;27;20198;-70
2023/01/01 11:42:29;;;;;;;8.03;4.80;;;16.40;66.70;;;;;;5153700;27;20205;-70
2023/01/01 11:45:03;;;;;;;9.10;5.13;;;16.40;66.40;;;;;;5154380;27;20542;-70
2023/01/01 11:47:34;;;;;;;6.20;4.60;;;16.40;66.70;;;;;;5153801;27;20195;-70
2023/01/01 11:50:18;;;;;;;11.63;4.77;;;16.40;66.50;;;;;;5153868;27;20678;-70
2023/01/01 11:52:49;;;;;;;11.13;5.70;;;16.40;67.10;;;;;;5153774;27;20689;-70
2023/01/01 11:55:26;;;;;;;9.07;5.47;;;16.40;67.00;;;;;;5153629;27;20221;-71
2023/01/01 11:58:03;;;;;;;9.40;4.63;;;16.40;67.50;;;;;;5153770;27;20191;-71
2023/01/01 12:00:37;;;;;;;9.47;5.27;;;16.40;67.50;;;;;;5153659;27;20196;-71
2023/01/01 12:03:18;;;;;;;8.57;5.10;;;16.30;67.70;;;;;;5153571;27;20618;-71
2023/01/01 12:05:50;;;;;;;10.73;5.10;;;16.30;68.00;;;;;;5153471;27;20238;-71
2023/01/01 12:08:31;;;;;;;11.53;5.10;;;16.30;68.10;;;;;;5153819;27;20193;-71
2023/01/01 12:11:08;;;;;;;14.53;5.47;;;16.20;68.10;;;;;;5153337;27;20196;-70
2023/01/01 12:13:47;;;;;;;13.03;5.20;;;16.30;68.60;;;;;;5153459;27;20235;-70
2023/01/01 12:16:22;;;;;;;6.43;4.83;;;16.30;68.00;;;;;;5153329;27;20304;-71
2023/01/01 12:19:02;;;;;;;9.60;4.80;;;16.20;67.80;;;;;;5153602;27;20213;-71
2023/01/01 12:21:34;;;;;;;6.13;4.27;;;16.20;68.00;;;;;;5153577;27;20197;-71
2023/01/01 12:24:03;;;;;;;7.37;5.30;;;16.20;68.40;;;;;;5153826;27;20282;-72
2023/01/01 12:26:42;;;;;;;13.03;5.43;;;16.10;68.40;;;;;;5153054;27;20254;-71
2023/01/01 12:29:33;;;;;;;7.07;4.60;;;16.10;68.80;;;;;;5153326;27;20254;-71
2023/01/01 12:32:13;;;;;;;8.07;4.73;;;16.10;69.40;;;;;;5153686;27;20207;-72
2023/01/01 12:34:53;;;;;;;8.93;4.60;;;16.00;68.70;;;;;;5153177;27;20293;-71
2023/01/01 12:37:34;;;;;;;7.50;4.60;;;16.00;68.80;;;;;;5153273;27;20225;-71
2023/01/01 12:40:35;;;;;;;9.17;4.80;;;16.00;69.10;;;;;;5153218;27;20191;-70
2023/01/01 12:43:07;;;;;;;6.83;4.40;;;16.00;68.60;;;;;;5156323;27;20197;-71
2023/01/01 12:46:05;;;;;;;9.97;3.90;;;16.00;68.60;;;;;;5157486;27;20640;-72
2023/01/01 12:48:52;;;;;;;9.37;4.60;;;16.00;68.40;;;;;;5157399;27;20251;-71
2023/01/01 12:51:31;;;;;;;8.87;4.63;;;16.00;68.70;;;;;;5157437;27;20656;-72
2023/01/01 12:54:15;;;;;;;6.60;4.20;;;16.00;68.50;;;;;;5157372;27;20197;-71
2023/01/01 12:56:52;;;;;;;5.20;3.93;;;16.00;68.60;;;;;;5157353;27;20321;-71
2023/01/01 12:59:26;;;;;;;9.83;4.77;;;16.00;68.70;;;;;;5157269;27;20240;-71
2023/01/01 13:01:59;;;;;;;8.33;4.33;;;16.00;68.50;;;;;;5157214;27;20278;-74
2023/01/01 13:04:30;;;;;;;7.93;3.73;;;15.90;69.00;;;;;;5157094;27;20192;-73
2023/01/01 13:07:04;;;;;;;6.67;4.27;;;16.00;68.80;;;;;;5156875;27;20661;-71
2023/01/01 13:09:36;;;;;;;9.17;4.67;;;16.00;68.80;;;;;;5156947;27;20216;-70
2023/01/01 13:12:08;;;;;;;7.50;4.13;;;15.90;68.10;;;;;;5156716;27;20197;-72